createdAt,value
2019-05-25T00:00:22.195Z,92.20
2019-05-25T00:04:24.092Z,92.60
2019-05-25T00:08:26.021Z,92.50
2019-05-25T00:12:28.154Z,92.50
2019-05-25T00:16:30.453Z,92.60
2019-05-25T00:20:32.423Z,92.60
2019-05-25T00:24:34.415Z,92.70
2019-05-25T00:28:36.396Z,92.60
2019-05-25T00:32:38.307Z,92.80
2019-05-25T00:36:42.953Z,93.10
2019-05-25T00:40:44.871Z,93.00
2019-05-25T00:44:46.795Z,93.10
2019-05-25T00:48:48.700Z,93.30
2019-05-25T00:52:50.692Z,93.40
2019-05-25T00:56:52.598Z,93.50
2019-05-25T01:00:54.546Z,93.50
2019-05-25T01:04:56.446Z,93.50
2019-05-25T01:08:58.362Z,93.40
2019-05-25T01:13:00.278Z,93.40
2019-05-25T01:17:03.554Z,93.50
2019-05-25T01:21:05.625Z,93.60
2019-05-25T01:25:08.958Z,93.50
2019-05-25T01:29:10.891Z,94.00
2019-05-25T01:33:12.944Z,94.00
2019-05-25T01:37:14.863Z,93.70
2019-05-25T01:41:17.752Z,93.80
2019-05-25T01:45:19.722Z,94.10
2019-05-25T01:49:21.645Z,94.00
2019-05-25T01:53:23.561Z,94.10
2019-05-25T01:57:25.493Z,94.20
2019-05-25T02:01:27.398Z,94.00
2019-05-25T02:05:29.342Z,94.30
2019-05-25T02:09:32.086Z,94.40
2019-05-25T02:13:34.069Z,94.40
2019-05-25T02:17:35.936Z,94.30
2019-05-25T02:21:39.628Z,94.60
2019-05-25T02:25:41.593Z,94.80
2019-05-25T02:29:43.507Z,94.80
2019-05-25T02:33:45.405Z,94.80
2019-05-25T02:37:47.326Z,95.60
2019-05-25T02:41:49.215Z,95.60
2019-05-25T02:45:51.291Z,95.50
2019-05-25T02:49:53.238Z,95.40
2019-05-25T02:53:55.131Z,95.20
2019-05-25T02:57:57.093Z,95.70
2019-05-25T03:01:59.587Z,96.00
2019-05-25T03:06:04.967Z,96.00
2019-05-25T03:10:07.817Z,96.10
2019-05-25T03:14:09.783Z,96.00
2019-05-25T03:18:12.475Z,95.80
2019-05-25T03:22:14.374Z,95.70
2019-05-25T03:26:16.265Z,95.70
2019-05-25T03:30:25.572Z,95.70
2019-05-25T03:34:27.491Z,95.60
2019-05-25T03:38:29.375Z,95.50
2019-05-25T03:42:31.279Z,95.40
2019-05-25T03:46:33.163Z,95.60
2019-05-25T03:50:35.159Z,95.60
2019-05-25T03:54:37.049Z,95.70
2019-05-25T03:58:38.944Z,95.80
2019-05-25T04:02:40.881Z,96.10
2019-05-25T04:06:42.780Z,96.20
2019-05-25T04:10:44.695Z,96.40
2019-05-25T04:14:46.591Z,96.70
2019-05-25T04:18:48.855Z,96.70
2019-05-25T04:22:50.762Z,96.70
2019-05-25T04:26:52.644Z,96.30
2019-05-25T04:30:54.554Z,96.30
2019-05-25T04:34:56.454Z,96.40
2019-05-25T04:38:58.346Z,96.60
2019-05-25T04:43:00.257Z,96.60
2019-05-25T04:47:03.286Z,96.50
2019-05-25T04:51:05.182Z,96.30
2019-05-25T04:59:15.161Z,96.40
2019-05-25T05:03:17.128Z,96.60
2019-05-25T05:07:19.051Z,97.00
2019-05-25T05:11:21.050Z,96.60
2019-05-25T05:15:23.040Z,96.10
2019-05-25T05:19:24.959Z,95.90
2019-05-25T05:23:26.863Z,95.70
2019-05-25T05:27:29.058Z,95.60
2019-05-25T05:31:30.976Z,95.30
2019-05-25T05:35:38.595Z,94.90
2019-05-25T05:39:38.483Z,95.40
2019-05-25T05:43:43.979Z,95.00
2019-05-25T05:47:48.326Z,95.10
2019-05-25T05:51:52.649Z,95.20
2019-05-25T05:55:54.570Z,94.60
2019-05-25T05:59:56.487Z,93.50
2019-05-25T06:03:58.402Z,94.90
2019-05-25T06:08:00.318Z,94.20
2019-05-25T06:12:03.496Z,93.70
2019-05-25T06:16:05.475Z,94.00
2019-05-25T06:20:09.497Z,93.30
2019-05-25T06:24:12.639Z,93.30
2019-05-25T06:28:18.215Z,92.40
2019-05-25T06:32:18.289Z,91.50
2019-05-25T06:36:20.233Z,90.20
2019-05-25T06:40:22.559Z,89.80
2019-05-25T06:44:25.503Z,88.90
2019-05-25T06:48:27.422Z,86.30
2019-05-25T06:52:29.396Z,84.50
2019-05-25T06:56:31.309Z,81.80
2019-05-25T07:00:34.168Z,83.10
2019-05-25T07:04:36.074Z,81.60
2019-05-25T07:08:38.072Z,79.80
2019-05-25T07:12:40.004Z,77.70
2019-05-25T07:16:44.719Z,72.90
2019-05-25T07:20:46.624Z,73.80
2019-05-25T07:24:48.551Z,70.80
2019-05-25T07:28:50.487Z,69.00
2019-05-25T07:32:52.579Z,68.70
2019-05-25T07:36:54.475Z,66.80
2019-05-25T07:40:56.411Z,64.30
2019-05-25T07:44:58.385Z,60.30
2019-05-25T07:49:00.320Z,63.60
2019-05-25T07:53:02.216Z,61.60
2019-05-25T07:57:07.128Z,60.40
2019-05-25T08:01:09.032Z,59.50
2019-05-25T08:05:11.237Z,57.50
2019-05-25T08:09:13.135Z,57.60
2019-05-25T08:13:15.049Z,56.60
2019-05-25T08:17:16.989Z,55.60
2019-05-25T08:21:18.897Z,55.20
2019-05-25T08:25:21.101Z,55.70
2019-05-25T08:29:23.013Z,53.70
2019-05-25T08:33:24.925Z,51.90
2019-05-25T08:37:26.834Z,54.00
2019-05-25T08:41:28.742Z,51.90
2019-05-25T08:45:30.732Z,49.50
2019-05-25T08:49:32.635Z,51.60
2019-05-25T08:53:41.526Z,46.70
2019-05-25T08:57:38.163Z,47.80
2019-05-25T09:01:40.080Z,49.50
2019-05-25T09:05:42.143Z,49.20
2019-05-25T09:09:44.051Z,46.30
2019-05-25T09:13:46.009Z,46.00
2019-05-25T09:17:47.908Z,44.70
2019-05-25T09:22:02.205Z,47.30
2019-05-25T09:25:53.502Z,46.90
2019-05-25T09:29:55.420Z,45.00
2019-05-25T09:33:57.321Z,46.60
2019-05-25T09:37:59.233Z,46.50
2019-05-25T09:42:02.780Z,48.50
2019-05-25T09:46:05.967Z,47.60
2019-05-25T09:50:08.374Z,46.50
2019-05-25T09:54:10.366Z,48.10
2019-05-25T09:58:12.866Z,46.20
2019-05-25T10:02:14.774Z,44.80
2019-05-25T10:06:17.675Z,44.60
2019-05-25T10:10:20.061Z,43.90
2019-05-25T10:14:21.984Z,42.50
2019-05-25T10:18:23.916Z,43.30
2019-05-25T10:22:25.868Z,43.50
2019-05-25T10:26:27.790Z,44.40
2019-05-25T10:30:29.749Z,45.60
2019-05-25T10:34:31.653Z,44.10
2019-05-25T10:38:33.844Z,41.20
2019-05-25T10:42:35.829Z,40.50
2019-05-25T10:46:37.758Z,41.10
2019-05-25T10:50:39.699Z,42.10
2019-05-25T10:54:41.597Z,40.30
2019-05-25T10:58:43.532Z,41.30
2019-05-25T11:02:45.424Z,39.60
2019-05-25T11:06:47.350Z,40.50
2019-05-25T11:10:49.261Z,40.70
2019-05-25T11:14:51.196Z,42.20
2019-05-25T11:18:53.236Z,42.70
2019-05-25T11:22:55.216Z,43.40
2019-05-25T11:26:59.647Z,43.20
2019-05-25T11:31:00.813Z,41.80
2019-05-25T11:35:02.724Z,40.70
2019-05-25T11:39:07.750Z,40.90
2019-05-25T11:43:09.681Z,39.60
2019-05-25T11:47:12.850Z,42.30
2019-05-25T11:51:14.752Z,37.80
2019-05-25T11:55:17.952Z,40.50
2019-05-25T11:59:19.838Z,39.40
2019-05-25T12:03:21.751Z,38.50
2019-05-25T12:07:24.641Z,39.00
2019-05-25T12:11:26.536Z,40.20
2019-05-25T12:15:28.449Z,41.00
2019-05-25T12:19:30.376Z,41.10
2019-05-25T12:23:33.617Z,42.60
2019-05-25T12:27:35.526Z,44.70
2019-05-25T12:31:37.447Z,47.00
2019-05-25T12:35:40.957Z,47.30
2019-05-25T12:39:42.855Z,47.10
2019-05-25T12:43:44.777Z,47.40
2019-05-25T12:47:46.677Z,48.80
2019-05-25T12:51:48.592Z,47.30
2019-05-25T12:55:50.512Z,45.10
2019-05-25T12:59:52.424Z,41.80
2019-05-25T13:03:54.327Z,39.80
2019-05-25T13:07:56.241Z,38.40
2019-05-25T13:11:58.230Z,38.30
2019-05-25T13:16:00.165Z,37.70
2019-05-25T13:20:02.900Z,35.80
2019-05-25T13:24:04.869Z,36.10
2019-05-25T13:28:07.306Z,33.60
2019-05-25T13:32:09.223Z,35.20
2019-05-25T13:36:11.142Z,36.30
2019-05-25T13:40:13.484Z,35.70
2019-05-25T13:44:15.413Z,37.00
2019-05-25T13:48:17.311Z,36.70
2019-05-25T13:52:19.315Z,39.30
2019-05-25T13:56:21.245Z,37.70
2019-05-25T14:00:23.218Z,33.00
2019-05-25T14:04:25.132Z,33.80
2019-05-25T14:08:27.057Z,32.80
2019-05-25T14:12:29.050Z,34.10
2019-05-25T14:16:30.968Z,33.10
2019-05-25T14:20:32.869Z,32.30
2019-05-25T14:24:35.638Z,33.40
2019-05-25T14:28:39.111Z,36.40
2019-05-25T14:32:41.024Z,35.00
2019-05-25T14:36:42.943Z,37.00
2019-05-25T14:40:44.908Z,37.10
2019-05-25T14:44:46.892Z,36.90
2019-05-25T14:48:48.808Z,36.60
2019-05-25T14:52:50.823Z,38.70
2019-05-25T14:56:52.823Z,40.20
2019-05-25T15:00:54.843Z,41.40
2019-05-25T15:04:56.754Z,45.70
2019-05-25T15:08:58.654Z,50.10
2019-05-25T15:13:00.612Z,51.40
2019-05-25T15:17:02.522Z,53.50
2019-05-25T15:21:04.424Z,54.60
2019-05-25T15:25:12.208Z,55.00
2019-05-25T15:29:14.308Z,55.30
2019-05-25T15:33:16.277Z,56.70
2019-05-25T15:37:18.198Z,56.80
2019-05-25T15:41:20.161Z,56.30
2019-05-25T15:45:23.027Z,56.50
2019-05-25T15:49:32.961Z,55.50
2019-05-25T15:53:29.254Z,55.90
2019-05-25T15:57:31.164Z,55.20
2019-05-25T16:01:33.687Z,54.90
2019-05-25T16:05:35.593Z,56.40
2019-05-25T16:09:37.514Z,58.70
2019-05-25T16:13:39.446Z,62.70
2019-05-25T16:17:41.615Z,64.70
2019-05-25T16:21:51.135Z,68.20
2019-05-25T16:25:53.030Z,71.20
2019-05-25T16:29:54.947Z,73.90
2019-05-25T16:33:56.869Z,74.60
2019-05-25T16:37:58.867Z,75.20
2019-05-25T16:42:01.671Z,75.80
2019-05-25T16:46:03.565Z,76.80
2019-05-25T16:50:30.492Z,76.20
2019-05-25T16:54:32.406Z,76.00
2019-05-25T16:58:34.391Z,76.00
2019-05-25T17:02:37.342Z,78.20
2019-05-25T17:06:39.247Z,79.90
2019-05-25T17:10:41.174Z,81.00
2019-05-25T17:14:43.090Z,81.20
2019-05-25T17:18:46.142Z,81.20
2019-05-25T17:22:48.210Z,82.80
2019-05-25T17:26:50.132Z,83.50
2019-05-25T17:30:53.033Z,84.70
2019-05-25T17:34:54.941Z,87.30
2019-05-25T17:38:56.843Z,90.20
2019-05-25T17:42:58.757Z,91.50
2019-05-25T17:47:00.674Z,92.90
2019-05-25T17:51:02.575Z,94.30
2019-05-25T17:55:07.009Z,95.20
2019-05-25T17:59:08.922Z,95.10
2019-05-25T18:03:11.126Z,95.60
2019-05-25T18:07:13.303Z,96.30
2019-05-25T18:11:15.377Z,96.90
2019-05-25T18:15:17.558Z,96.60
2019-05-25T18:19:19.460Z,96.50
2019-05-25T18:23:22.537Z,96.80
2019-05-25T18:27:24.450Z,96.90
2019-05-25T18:31:26.371Z,96.40
2019-05-25T18:35:28.289Z,96.10
2019-05-25T18:39:30.231Z,96.00
2019-05-25T18:43:32.150Z,96.00
2019-05-25T18:47:34.070Z,96.40
2019-05-25T18:51:35.957Z,97.10
2019-05-25T18:55:37.879Z,96.80
2019-05-25T18:59:39.792Z,97.50
2019-05-25T19:03:41.714Z,97.50
2019-05-25T19:07:43.645Z,97.50
2019-05-25T19:11:45.560Z,97.60
2019-05-25T19:15:47.469Z,97.20
2019-05-25T19:19:49.385Z,97.10
2019-05-25T19:23:51.318Z,97.10
2019-05-25T19:27:53.244Z,97.60
2019-05-25T19:31:55.140Z,97.20
2019-05-25T19:35:57.263Z,97.40
2019-05-25T19:39:59.191Z,96.70
2019-05-25T19:44:01.122Z,97.40
2019-05-25T19:48:03.041Z,97.50
2019-05-25T19:52:05.708Z,97.60
2019-05-25T19:56:07.996Z,97.70
2019-05-25T20:00:11.739Z,97.30
2019-05-25T20:04:13.639Z,97.00
2019-05-25T20:08:15.567Z,97.40
2019-05-25T20:12:17.464Z,97.40
2019-05-25T20:16:19.398Z,97.50
2019-05-25T20:20:21.722Z,97.70
2019-05-25T20:24:23.676Z,97.80
2019-05-25T20:28:25.601Z,97.80
2019-05-25T20:32:27.512Z,98.00
2019-05-25T20:36:29.422Z,98.10
2019-05-25T20:40:31.328Z,98.20
2019-05-25T20:44:33.251Z,98.20
2019-05-25T20:48:35.154Z,98.20
2019-05-25T20:52:37.100Z,98.20
2019-05-25T20:56:39.010Z,98.60
2019-05-25T21:00:41.764Z,98.70
2019-05-25T21:04:43.727Z,98.40
2019-05-25T21:08:45.698Z,98.10
2019-05-25T21:12:48.473Z,98.40
2019-05-25T21:16:50.846Z,98.80
2019-05-25T21:20:56.786Z,98.50
2019-05-25T21:25:05.283Z,98.10
2019-05-25T21:29:02.341Z,98.60
2019-05-25T21:33:04.249Z,98.70
2019-05-25T21:37:06.325Z,98.80
2019-05-25T21:41:08.256Z,99.10
2019-05-25T21:45:10.578Z,99.10
2019-05-25T21:49:13.554Z,99.00
2019-05-25T21:53:15.489Z,98.80
2019-05-25T21:57:17.386Z,98.80
2019-05-25T22:01:19.564Z,98.80
2019-05-25T22:05:21.992Z,98.40
2019-05-25T22:09:23.913Z,98.70
2019-05-25T22:13:28.900Z,98.90
2019-05-25T22:17:30.445Z,99.00
2019-05-25T22:21:32.392Z,99.30
2019-05-25T22:25:34.390Z,99.10
2019-05-25T22:29:36.329Z,99.10
2019-05-25T22:33:38.272Z,99.10
2019-05-25T22:37:40.218Z,98.90
2019-05-25T22:41:43.216Z,98.70
2019-05-25T22:45:45.171Z,98.60
2019-05-25T22:49:47.141Z,98.90
2019-05-25T22:53:49.130Z,98.80
2019-05-25T22:57:51.065Z,98.90
2019-05-25T23:01:53.026Z,99.20
2019-05-25T23:05:54.952Z,99.50
2019-05-25T23:09:56.900Z,99.50
2019-05-25T23:13:58.823Z,99.60
2019-05-25T23:18:00.770Z,99.70
2019-05-25T23:22:02.730Z,99.80
2019-05-25T23:26:04.754Z,99.70
2019-05-25T23:30:08.905Z,99.80
2019-05-25T23:34:10.853Z,99.60
2019-05-25T23:38:13.461Z,99.70
2019-05-25T23:42:15.383Z,99.50
2019-05-25T23:46:17.365Z,99.60
2019-05-25T23:50:19.536Z,99.80
2019-05-25T23:54:21.471Z,99.90
2019-05-25T23:58:23.438Z,99.90
